createdAt,value
2018-12-21T00:01:05.177Z,100721.11
2018-12-21T00:03:31.141Z,100719.09
2018-12-21T00:05:57.142Z,100712.84
2018-12-21T00:08:23.139Z,100714.31
2018-12-21T00:10:49.118Z,100706.41
2018-12-21T00:13:15.081Z,100705.22
2018-12-21T00:15:41.075Z,100698.63
2018-12-21T00:18:07.045Z,100693.36
2018-12-21T00:20:33.020Z,100690.73
2018-12-21T00:22:59.003Z,100688.30
2018-12-21T00:25:25.013Z,100681.21
2018-12-21T00:27:50.956Z,100687.47
2018-12-21T00:30:16.945Z,100681.01
2018-12-21T00:32:43.013Z,100681.37
2018-12-21T00:35:08.980Z,100671.03
2018-12-21T00:37:34.929Z,100671.16
2018-12-21T00:40:00.898Z,100673.67
2018-12-21T00:42:26.866Z,100669.02
2018-12-21T00:44:52.904Z,100673.30
2018-12-21T00:47:18.891Z,100669.34
2018-12-21T00:49:44.825Z,100661.31
2018-12-21T00:52:10.840Z,100654.39
2018-12-21T00:54:36.804Z,100646.95
2018-12-21T00:57:02.781Z,100646.33
2018-12-21T00:59:28.767Z,100639.41
2018-12-21T01:01:54.759Z,100636.08
2018-12-21T01:04:20.748Z,100636.08
2018-12-21T01:06:46.703Z,100636.38
2018-12-21T01:09:12.703Z,100637.20
2018-12-21T01:11:38.669Z,100636.70
2018-12-21T01:14:04.649Z,100635.05
2018-12-21T01:16:30.628Z,100634.69
2018-12-21T01:18:56.579Z,100630.73
2018-12-21T01:21:22.530Z,100625.83
2018-12-21T01:23:48.485Z,100630.25
2018-12-21T01:26:14.523Z,100619.58
2018-12-21T01:28:40.475Z,100615.48
2018-12-21T01:31:06.420Z,100620.06
2018-12-21T01:33:32.546Z,100611.34
2018-12-21T01:35:58.598Z,100610.68
2018-12-21T01:38:24.573Z,100601.25
2018-12-21T01:40:50.559Z,100607.84
2018-12-21T01:43:16.521Z,100609.52
2018-12-21T01:45:42.495Z,100603.56
2018-12-21T01:48:08.441Z,100606.20
2018-12-21T01:50:34.409Z,100602.11
2018-12-21T01:53:00.366Z,100595.79
2018-12-21T01:55:26.343Z,100590.19
2018-12-21T01:57:52.326Z,100587.75
2018-12-21T02:00:18.386Z,100577.84
2018-12-21T02:02:44.347Z,100574.70
2018-12-21T02:05:10.344Z,100569.63
2018-12-21T02:07:36.293Z,100563.54
2018-12-21T02:10:02.287Z,100556.81
2018-12-21T02:12:28.407Z,100553.20
2018-12-21T02:14:54.386Z,100547.79
2018-12-21T02:17:20.393Z,100547.16
2018-12-21T02:19:46.423Z,100543.90
2018-12-21T02:22:12.528Z,100541.73
2018-12-21T02:24:38.621Z,100534.67
2018-12-21T02:27:04.596Z,100529.73
2018-12-21T02:29:30.562Z,100528.61
2018-12-21T02:31:56.520Z,100517.23
2018-12-21T02:34:22.481Z,100511.34
2018-12-21T02:36:48.501Z,100494.48
2018-12-21T02:39:14.541Z,100494.16
2018-12-21T02:41:40.514Z,100491.19
2018-12-21T02:44:06.470Z,100480.97
2018-12-21T02:46:32.454Z,100481.80
2018-12-21T02:48:58.453Z,100476.20
2018-12-21T02:51:24.433Z,100471.42
2018-12-21T02:53:50.570Z,100466.28
2018-12-21T02:56:16.534Z,100457.25
2018-12-21T02:58:42.572Z,100450.34
2018-12-21T03:01:08.521Z,100446.08
2018-12-21T03:03:34.495Z,100449.04
2018-12-21T03:06:00.447Z,100446.08
2018-12-21T03:08:26.429Z,100437.67
2018-12-21T03:10:52.396Z,100438.50
2018-12-21T03:13:18.433Z,100439.81
2018-12-21T03:15:44.417Z,100433.59
2018-12-21T03:18:10.386Z,100421.37
2018-12-21T03:20:36.350Z,100413.81
2018-12-21T03:23:02.392Z,100408.55
2018-12-21T03:25:28.500Z,100402.92
2018-12-21T03:27:54.457Z,100387.92
2018-12-21T03:30:20.548Z,100381.34
2018-12-21T03:32:46.491Z,100376.56
2018-12-21T03:35:12.454Z,100370.33
2018-12-21T03:37:38.435Z,100367.20
2018-12-21T03:40:04.395Z,100362.42
2018-12-21T03:42:30.461Z,100357.97
2018-12-21T03:44:56.620Z,100357.48
2018-12-21T03:47:22.597Z,100364.39
2018-12-21T03:49:48.547Z,100353.03
2018-12-21T03:52:24.001Z,100345.48
2018-12-21T03:54:42.459Z,100341.84
2018-12-21T03:57:08.412Z,100337.08
2018-12-21T03:59:34.426Z,100322.22
2018-12-21T04:02:00.392Z,100316.81
2018-12-21T04:04:26.343Z,100311.36
2018-12-21T04:06:52.413Z,100303.77
2018-12-21T04:09:18.386Z,100293.23
2018-12-21T04:11:44.342Z,100291.59
2018-12-21T04:14:10.294Z,100283.53
2018-12-21T04:16:36.243Z,100277.09
2018-12-21T04:19:02.203Z,100268.36
2018-12-21T04:21:28.150Z,100262.77
2018-12-21T04:23:54.101Z,100252.73
2018-12-21T04:26:20.070Z,100238.23
2018-12-21T04:28:46.072Z,100231.15
2018-12-21T04:31:12.020Z,100231.97
2018-12-21T04:33:37.989Z,100223.24
2018-12-21T04:36:04.043Z,100223.42
2018-12-21T04:38:30.011Z,100218.97
2018-12-21T04:40:55.953Z,100216.83
2018-12-21T04:43:21.942Z,100212.38
2018-12-21T04:45:47.903Z,100198.88
2018-12-21T04:48:13.977Z,100205.47
2018-12-21T04:50:40.025Z,100199.38
2018-12-21T04:53:05.976Z,100199.87
2018-12-21T04:55:31.931Z,100195.92
2018-12-21T04:57:57.993Z,100186.34
2018-12-21T05:00:23.952Z,100184.20
2018-12-21T05:02:49.924Z,100178.44
2018-12-21T05:05:15.903Z,100179.75
2018-12-21T05:07:41.866Z,100180.58
2018-12-21T05:10:07.821Z,100163.44
2018-12-21T05:12:33.776Z,100159.17
2018-12-21T05:14:59.727Z,100151.94
2018-12-21T05:17:25.702Z,100141.39
2018-12-21T05:19:51.657Z,100135.77
2018-12-21T05:22:17.621Z,100133.98
2018-12-21T05:24:43.610Z,100118.34
2018-12-21T05:27:09.610Z,100107.12
2018-12-21T05:29:35.554Z,100103.00
2018-12-21T05:32:01.510Z,100096.23
2018-12-21T05:34:27.462Z,100101.36
2018-12-21T05:36:53.415Z,100091.64
2018-12-21T05:39:19.358Z,100081.59
2018-12-21T05:41:45.309Z,100064.95
2018-12-21T05:44:11.296Z,100072.37
2018-12-21T05:46:37.220Z,100055.38
2018-12-21T05:49:03.192Z,100052.75
2018-12-21T05:51:29.144Z,100040.56
2018-12-21T05:53:55.109Z,100030.34
2018-12-21T05:56:21.061Z,100021.12
2018-12-21T05:58:47.051Z,100026.07
2018-12-21T06:01:13.078Z,100009.44
2018-12-21T06:03:39.056Z,100003.84
2018-12-21T06:06:05.021Z,99997.25
2018-12-21T06:08:30.994Z,99992.80
2018-12-21T06:10:56.939Z,99995.44
2018-12-21T06:13:22.906Z,99992.30
2018-12-21T06:15:48.880Z,99997.10
2018-12-21T06:18:14.919Z,99985.24
2018-12-21T06:20:40.863Z,99983.58
2018-12-21T06:23:09.546Z,99991.83
2018-12-21T06:25:34.917Z,99987.88
2018-12-21T06:28:00.871Z,99979.62
2018-12-21T06:30:26.826Z,99981.44
2018-12-21T06:32:52.833Z,99973.53
2018-12-21T06:35:18.842Z,99961.98
2018-12-21T06:37:44.830Z,99956.25
2018-12-21T06:40:10.777Z,99949.81
2018-12-21T06:42:36.838Z,99947.34
2018-12-21T06:45:02.807Z,99941.25
2018-12-21T06:47:28.835Z,99936.80
2018-12-21T06:49:54.813Z,99931.68
2018-12-21T06:52:20.868Z,99929.55
2018-12-21T06:54:46.838Z,99915.05
2018-12-21T06:57:12.816Z,99911.28
2018-12-21T06:59:38.773Z,99909.45
2018-12-21T07:02:04.772Z,99901.55
2018-12-21T07:04:30.804Z,99902.87
2018-12-21T07:06:56.762Z,99893.63
2018-12-21T07:09:22.715Z,99895.45
2018-12-21T07:11:48.792Z,99892.16
2018-12-21T07:14:14.755Z,99883.44
2018-12-21T07:16:40.825Z,99880.80
2018-12-21T07:19:06.977Z,99876.66
2018-12-21T07:21:32.962Z,99873.56
2018-12-21T07:23:58.914Z,99875.86
2018-12-21T07:26:24.953Z,99870.09
2018-12-21T07:28:50.937Z,99859.71
2018-12-21T07:31:16.889Z,99848.34
2018-12-21T07:33:42.857Z,99840.94
2018-12-21T07:36:08.946Z,99845.21
2018-12-21T07:38:35.097Z,99842.26
2018-12-21T07:41:01.057Z,99840.13
2018-12-21T07:43:27.025Z,99842.09
2018-12-21T07:45:53.029Z,99829.41
2018-12-21T07:48:18.969Z,99815.07
2018-12-21T07:50:44.937Z,99810.62
2018-12-21T07:53:10.962Z,99808.33
2018-12-21T07:55:37.018Z,99808.98
2018-12-21T07:58:03.077Z,99795.30
2018-12-21T08:00:29.042Z,99789.53
2018-12-21T08:02:55.164Z,99781.78
2018-12-21T08:05:21.113Z,99771.90
2018-12-21T08:07:47.089Z,99758.06
2018-12-21T08:10:13.070Z,99751.31
2018-12-21T08:12:39.018Z,99732.86
2018-12-21T08:15:05.025Z,99722.00
2018-12-21T08:17:30.970Z,99724.30
2018-12-21T08:19:56.936Z,99719.84
2018-12-21T08:22:22.909Z,99703.87
2018-12-21T08:24:48.857Z,99687.39
2018-12-21T08:27:14.823Z,99671.08
2018-12-21T08:29:40.790Z,99653.48
2018-12-21T08:32:06.781Z,99653.95
2018-12-21T08:34:32.724Z,99664.49
2018-12-21T08:36:58.691Z,99655.77
2018-12-21T08:39:24.645Z,99664.17
2018-12-21T08:41:50.625Z,99665.00
2018-12-21T08:44:16.581Z,99672.40
2018-12-21T08:46:42.540Z,99655.45
2018-12-21T08:49:08.502Z,99645.57
2018-12-21T08:51:34.449Z,99640.61
2018-12-21T08:54:00.460Z,99637.98
2018-12-21T08:56:26.439Z,99638.33
2018-12-21T08:58:52.495Z,99627.28
2018-12-21T09:01:18.447Z,99620.03
2018-12-21T09:03:44.494Z,99620.34
2018-12-21T09:06:18.264Z,99607.82
2018-12-21T09:08:38.396Z,99607.32
2018-12-21T09:11:04.367Z,99608.80
2018-12-21T09:13:30.350Z,99605.84
2018-12-21T09:15:56.307Z,99596.94
2018-12-21T09:18:22.261Z,99587.70
2018-12-21T09:20:48.330Z,99587.05
2018-12-21T09:23:14.358Z,99584.25
2018-12-21T09:25:40.325Z,99590.34
2018-12-21T09:28:06.375Z,99588.05
2018-12-21T09:30:32.327Z,99585.27
2018-12-21T09:32:58.286Z,99581.97
2018-12-21T09:35:24.511Z,99588.20
2018-12-21T09:37:50.569Z,99577.97
2018-12-21T09:40:16.561Z,99580.95
2018-12-21T09:42:42.585Z,99566.77
2018-12-21T09:45:08.622Z,99570.92
2018-12-21T09:47:34.663Z,99559.87
2018-12-21T09:50:00.700Z,99554.91
2018-12-21T09:52:26.701Z,99551.96
2018-12-21T09:54:52.660Z,99544.05
2018-12-21T09:57:18.629Z,99533.01
2018-12-21T09:59:44.621Z,99547.34
2018-12-21T10:02:10.676Z,99540.41
2018-12-21T10:04:36.747Z,99546.03
2018-12-21T10:07:02.740Z,99533.01
2018-12-21T10:09:28.721Z,99534.98
2018-12-21T10:11:54.731Z,99531.34
2018-12-21T10:14:20.719Z,99525.91
2018-12-21T10:16:46.702Z,99529.20
2018-12-21T10:19:12.690Z,99514.70
2018-12-21T10:21:38.662Z,99521.64
2018-12-21T10:24:04.617Z,99520.80
2018-12-21T10:26:30.614Z,99522.95
2018-12-21T10:28:56.595Z,99517.34
2018-12-21T10:31:22.899Z,99522.45
2018-12-21T10:33:49.000Z,99519.48
2018-12-21T10:36:15.185Z,99511.09
2018-12-21T10:38:41.125Z,99510.75
2018-12-21T10:41:07.103Z,99507.45
2018-12-21T10:43:33.057Z,99513.06
2018-12-21T10:45:59.056Z,99507.80
2018-12-21T10:48:25.032Z,99504.49
2018-12-21T10:50:51.003Z,99503.52
2018-12-21T10:53:17.028Z,99491.65
2018-12-21T10:55:43.053Z,99494.24
2018-12-21T10:58:09.073Z,99502.48
2018-12-21T11:00:35.227Z,99500.47
2018-12-21T11:03:01.194Z,99497.02
2018-12-21T11:05:27.141Z,99492.55
2018-12-21T11:07:53.123Z,99494.86
2018-12-21T11:10:19.133Z,99487.77
2018-12-21T11:12:45.170Z,99501.77
2018-12-21T11:15:11.178Z,99486.25
2018-12-21T11:17:37.213Z,99501.10
2018-12-21T11:20:03.238Z,99492.69
2018-12-21T11:22:29.205Z,99495.83
2018-12-21T11:24:55.161Z,99484.13
2018-12-21T11:27:21.233Z,99500.59
2018-12-21T11:29:47.175Z,99497.64
2018-12-21T11:32:13.193Z,99487.91
2018-12-21T11:34:39.162Z,99495.98
2018-12-21T11:37:05.220Z,99514.13
2018-12-21T11:39:31.165Z,99505.07
2018-12-21T11:41:57.313Z,99495.70
2018-12-21T11:44:23.378Z,99502.48
2018-12-21T11:46:49.340Z,99497.66
2018-12-21T11:49:15.330Z,99500.47
2018-12-21T11:51:41.310Z,99498.02
2018-12-21T11:54:07.290Z,99496.20
2018-12-21T11:56:33.281Z,99507.56
2018-12-21T11:58:59.459Z,99498.98
2018-12-21T12:01:25.411Z,99507.20
2018-12-21T12:03:51.370Z,99510.03
2018-12-21T12:06:17.363Z,99517.95
2018-12-21T12:08:43.679Z,99508.05
2018-12-21T12:11:09.617Z,99510.99
2018-12-21T12:13:35.585Z,99528.95
2018-12-21T12:16:01.559Z,99523.82
2018-12-21T12:18:27.527Z,99513.27
2018-12-21T12:20:53.526Z,99520.52
2018-12-21T12:23:19.499Z,99523.50
2018-12-21T12:25:46.457Z,99523.16
2018-12-21T12:28:12.476Z,99539.32
2018-12-21T12:30:38.421Z,99526.45
2018-12-21T12:33:04.396Z,99527.77
2018-12-21T12:35:30.354Z,99523.81
2018-12-21T12:37:56.340Z,99525.29
2018-12-21T12:40:22.282Z,99516.06
2018-12-21T12:42:48.243Z,99530.92
2018-12-21T12:45:14.256Z,99516.25
2018-12-21T12:47:40.286Z,99521.19
2018-12-21T12:50:06.315Z,99526.80
2018-12-21T12:52:32.352Z,99536.03
2018-12-21T12:55:03.020Z,99538.83
2018-12-21T12:57:26.346Z,99538.33
2018-12-21T12:59:52.393Z,99533.41
2018-12-21T13:02:18.445Z,99530.94
2018-12-21T13:04:44.434Z,99548.92
2018-12-21T13:07:10.397Z,99542.99
2018-12-21T13:09:36.375Z,99526.67
2018-12-21T13:12:02.361Z,99530.12
2018-12-21T13:14:28.346Z,99538.89
2018-12-21T13:16:54.328Z,99546.80
2018-12-21T13:19:20.314Z,99552.07
2018-12-21T13:21:46.277Z,99546.61
2018-12-21T13:24:12.264Z,99552.58
2018-12-21T13:26:38.284Z,99553.55
2018-12-21T13:29:04.529Z,99552.38
2018-12-21T13:31:30.558Z,99554.20
2018-12-21T13:33:56.592Z,99540.52
2018-12-21T13:36:22.556Z,99562.12
2018-12-21T13:38:48.530Z,99556.34
2018-12-21T13:41:14.489Z,99565.72
2018-12-21T13:43:40.444Z,99567.70
2018-12-21T13:46:06.382Z,99564.25
2018-12-21T13:48:32.354Z,99572.31
2018-12-21T13:50:58.322Z,99573.97
2018-12-21T13:53:24.277Z,99570.98
2018-12-21T13:55:50.246Z,99566.07
2018-12-21T13:58:16.284Z,99571.34
2018-12-21T14:00:42.230Z,99582.39
2018-12-21T14:03:08.225Z,99591.94
2018-12-21T14:05:34.201Z,99598.22
2018-12-21T14:08:00.241Z,99592.59
2018-12-21T14:10:26.938Z,99607.75
2018-12-21T14:12:52.889Z,99608.57
2018-12-21T14:15:18.858Z,99623.58
2018-12-21T14:17:44.838Z,99610.73
2018-12-21T14:20:10.818Z,99623.41
2018-12-21T14:22:36.782Z,99633.96
2018-12-21T14:25:02.742Z,99634.13
2018-12-21T14:27:28.818Z,99629.66
2018-12-21T14:29:54.838Z,99629.66
2018-12-21T14:32:20.805Z,99630.67
2018-12-21T14:34:46.789Z,99627.03
2018-12-21T14:37:12.828Z,99642.84
2018-12-21T14:39:38.820Z,99642.53
2018-12-21T14:42:04.792Z,99645.83
2018-12-21T14:44:30.758Z,99651.45
2018-12-21T14:46:56.736Z,99645.02
2018-12-21T14:49:22.712Z,99645.33
2018-12-21T14:51:48.798Z,99666.77
2018-12-21T14:54:14.843Z,99663.31
2018-12-21T14:56:40.786Z,99671.54
2018-12-21T14:59:06.787Z,99662.62
2018-12-21T15:01:32.792Z,99670.53
2018-12-21T15:03:58.841Z,99680.42
2018-12-21T15:06:24.818Z,99674.17
2018-12-21T15:08:50.773Z,99687.36
2018-12-21T15:11:16.724Z,99697.56
2018-12-21T15:13:42.673Z,99705.31
2018-12-21T15:16:08.802Z,99718.16
2018-12-21T15:18:34.780Z,99717.65
2018-12-21T15:21:00.754Z,99724.75
2018-12-21T15:23:26.713Z,99725.09
2018-12-21T15:25:52.698Z,99727.73
2018-12-21T15:28:18.659Z,99729.86
2018-12-21T15:30:44.620Z,99738.44
2018-12-21T15:33:10.670Z,99753.56
2018-12-21T15:35:36.816Z,99748.29
2018-12-21T15:38:02.799Z,99756.36
2018-12-21T15:40:28.782Z,99750.61
2018-12-21T15:42:54.732Z,99757.20
2018-12-21T15:45:20.688Z,99764.77
2018-12-21T15:47:46.656Z,99766.75
2018-12-21T15:50:12.610Z,99772.69
2018-12-21T15:52:38.581Z,99769.70
2018-12-21T15:55:04.550Z,99777.30
2018-12-21T15:57:30.497Z,99790.17
2018-12-21T15:59:56.467Z,99796.11
2018-12-21T16:02:22.414Z,99802.05
2018-12-21T16:04:48.358Z,99806.16
2018-12-21T16:07:14.328Z,99817.20
2018-12-21T16:09:40.274Z,99837.33
2018-12-21T16:12:06.335Z,99824.80
2018-12-21T16:14:34.621Z,99834.03
2018-12-21T16:17:00.298Z,99846.05
2018-12-21T16:19:26.275Z,99847.05
2018-12-21T16:21:52.244Z,99854.97
2018-12-21T16:24:18.211Z,99845.42
2018-12-21T16:26:44.181Z,99871.29
2018-12-21T16:29:10.134Z,99873.77
2018-12-21T16:31:36.129Z,99867.32
2018-12-21T16:34:02.137Z,99874.73
2018-12-21T16:36:28.098Z,99867.67
2018-12-21T16:38:54.085Z,99873.09
2018-12-21T16:41:20.059Z,99875.23
2018-12-21T16:43:46.122Z,99876.22
2018-12-21T16:46:12.181Z,99882.48
2018-12-21T16:48:38.174Z,99867.67
2018-12-21T16:51:04.194Z,99862.88
2018-12-21T16:53:30.142Z,99888.42
2018-12-21T16:55:56.095Z,99882.17
2018-12-21T16:58:22.077Z,99904.91
2018-12-21T17:00:48.049Z,99910.52
2018-12-21T17:03:15.738Z,99915.79
2018-12-21T17:05:41.975Z,99921.53
2018-12-21T17:08:07.946Z,99910.67
2018-12-21T17:10:34.001Z,99914.94
2018-12-21T17:12:59.965Z,99911.17
2018-12-21T17:15:25.957Z,99919.23
2018-12-21T17:17:51.940Z,99925.48
2018-12-21T17:20:17.982Z,99918.73
2018-12-21T17:22:43.936Z,99926.83
2018-12-21T17:25:09.888Z,99927.96
2018-12-21T17:27:35.951Z,99946.41
2018-12-21T17:30:01.935Z,99932.77
2018-12-21T17:32:28.622Z,99935.72
2018-12-21T17:34:55.883Z,99950.22
2018-12-21T17:37:22.152Z,99949.41
2018-12-21T17:39:48.106Z,99956.31
2018-12-21T17:42:14.085Z,99959.59
2018-12-21T17:44:40.043Z,99960.59
2018-12-21T17:47:06.023Z,99966.38
2018-12-21T17:49:31.978Z,99971.46
2018-12-21T17:52:01.535Z,99966.38
2018-12-21T17:54:26.017Z,99976.42
2018-12-21T17:56:51.967Z,99986.97
2018-12-21T17:59:18.174Z,99992.39
2018-12-21T18:01:44.109Z,99998.52
2018-12-21T18:04:10.063Z,99990.75
2018-12-21T18:06:36.005Z,99998.16
2018-12-21T18:09:02.002Z,100007.08
2018-12-21T18:11:27.961Z,100012.00
2018-12-21T18:13:53.933Z,100013.31
2018-12-21T18:16:20.864Z,100021.69
2018-12-21T18:18:46.986Z,100026.84
2018-12-21T18:21:12.973Z,100028.16
2018-12-21T18:23:38.939Z,100032.23
2018-12-21T18:26:04.925Z,100032.12
2018-12-21T18:28:31.121Z,100036.58
2018-12-21T18:30:57.144Z,100039.33
2018-12-21T18:33:23.118Z,100037.05
2018-12-21T18:35:49.078Z,100043.78
2018-12-21T18:38:15.035Z,100039.68
2018-12-21T18:40:40.996Z,100032.73
2018-12-21T18:43:06.946Z,100048.77
2018-12-21T18:45:32.897Z,100047.59
2018-12-21T18:47:59.061Z,100060.30
2018-12-21T18:50:25.019Z,100062.45
2018-12-21T18:52:50.986Z,100068.22
2018-12-21T18:55:17.466Z,100072.99
2018-12-21T18:57:43.628Z,100077.91
2018-12-21T19:00:09.627Z,100081.66
2018-12-21T19:02:35.600Z,100079.38
2018-12-21T19:05:01.610Z,100086.17
2018-12-21T19:07:27.564Z,100083.86
2018-12-21T19:09:53.567Z,100091.27
2018-12-21T19:12:19.589Z,100100.67
2018-12-21T19:14:45.584Z,100113.21
2018-12-21T19:17:11.668Z,100103.98
2018-12-21T19:19:37.816Z,100101.98
2018-12-21T19:22:03.788Z,100099.03
2018-12-21T19:24:29.737Z,100109.91
2018-12-21T19:26:56.088Z,100120.80
2018-12-21T19:29:22.164Z,100117.81
2018-12-21T19:31:48.107Z,100115.17
2018-12-21T19:34:14.097Z,100119.48
2018-12-21T19:36:40.165Z,100122.44
2018-12-21T19:39:06.154Z,100125.58
2018-12-21T19:41:32.113Z,100130.34
2018-12-21T19:43:58.141Z,100138.44
2018-12-21T19:46:24.128Z,100147.16
2018-12-21T19:48:50.135Z,100139.25
2018-12-21T19:51:16.090Z,100147.48
2018-12-21T19:53:42.060Z,100144.18
2018-12-21T19:56:08.136Z,100160.50
2018-12-21T19:58:34.198Z,100163.66
2018-12-21T20:01:00.337Z,100157.89
2018-12-21T20:03:26.375Z,100153.41
2018-12-21T20:05:52.349Z,100146.34
2018-12-21T20:08:18.327Z,100163.81
2018-12-21T20:10:44.377Z,100162.17
2018-12-21T20:13:10.577Z,100165.98
2018-12-21T20:15:36.530Z,100167.12
2018-12-21T20:18:02.505Z,100181.12
2018-12-21T20:20:28.571Z,100183.12
2018-12-21T20:22:54.632Z,100182.12
2018-12-21T20:25:20.586Z,100183.94
2018-12-21T20:27:46.553Z,100183.61
2018-12-21T20:30:12.510Z,100173.89
2018-12-21T20:32:38.479Z,100186.92
2018-12-21T20:35:04.530Z,100187.75
2018-12-21T20:37:30.505Z,100170.42
2018-12-21T20:39:56.557Z,100181.16
2018-12-21T20:42:22.508Z,100175.38
2018-12-21T20:44:48.496Z,100177.02
2018-12-21T20:47:14.458Z,100188.25
2018-12-21T20:49:40.421Z,100192.38
2018-12-21T20:52:06.407Z,100195.98
2018-12-21T20:54:32.372Z,100205.53
2018-12-21T20:56:58.336Z,100201.72
2018-12-21T20:59:24.306Z,100208.31
2018-12-21T21:01:50.279Z,100206.00
2018-12-21T21:04:16.282Z,100214.91
2018-12-21T21:06:42.267Z,100218.55
2018-12-21T21:09:08.219Z,100221.03
2018-12-21T21:11:34.270Z,100217.55
2018-12-21T21:14:00.338Z,100216.41
2018-12-21T21:16:26.418Z,100213.59
2018-12-21T21:18:52.389Z,100215.08
2018-12-21T21:21:18.366Z,100221.68
2018-12-21T21:23:44.434Z,100217.55
2018-12-21T21:26:10.434Z,100223.32
2018-12-21T21:28:36.376Z,100219.72
2018-12-21T21:31:02.365Z,100229.77
2018-12-21T21:33:28.334Z,100233.72
2018-12-21T21:35:54.312Z,100237.18
2018-12-21T21:38:21.002Z,100244.27
2018-12-21T21:40:46.980Z,100240.81
2018-12-21T21:43:12.983Z,100241.78
2018-12-21T21:45:38.987Z,100246.55
2018-12-21T21:48:05.006Z,100248.38
2018-12-21T21:50:30.951Z,100252.33
2018-12-21T21:52:56.959Z,100261.06
2018-12-21T21:55:24.272Z,100252.83
2018-12-21T21:57:50.429Z,100248.87
2018-12-21T22:00:16.512Z,100267.97
2018-12-21T22:02:42.571Z,100264.52
2018-12-21T22:05:08.745Z,100270.42
2018-12-21T22:07:34.833Z,100263.34
2018-12-21T22:10:00.876Z,100268.61
2018-12-21T22:12:26.832Z,100285.75
2018-12-21T22:14:52.805Z,100285.43
2018-12-21T22:17:18.786Z,100271.42
2018-12-21T22:19:44.739Z,100267.11
2018-12-21T22:22:10.730Z,100279.80
2018-12-21T22:24:36.677Z,100263.34
2018-12-21T22:27:02.711Z,100270.75
2018-12-21T22:29:28.728Z,100262.52
2018-12-21T22:31:54.680Z,100273.89
2018-12-21T22:34:20.643Z,100280.98
2018-12-21T22:36:46.600Z,100284.11
2018-12-21T22:39:12.561Z,100285.43
2018-12-21T22:41:38.515Z,100276.70
2018-12-21T22:44:04.519Z,100282.61
2018-12-21T22:46:30.532Z,100277.45
2018-12-21T22:48:56.479Z,100288.49
2018-12-21T22:51:22.429Z,100286.50
2018-12-21T22:53:48.395Z,100290.45
2018-12-21T22:56:14.406Z,100291.77
2018-12-21T22:58:40.475Z,100295.05
2018-12-21T23:01:06.443Z,100296.72
2018-12-21T23:03:32.411Z,100300.67
2018-12-21T23:05:58.402Z,100294.77
2018-12-21T23:08:24.356Z,100296.30
2018-12-21T23:10:50.330Z,100295.44
2018-12-21T23:13:16.313Z,100294.13
2018-12-21T23:15:42.310Z,100296.41
2018-12-21T23:18:08.263Z,100293.23
2018-12-21T23:20:34.226Z,100293.91
2018-12-21T23:23:00.262Z,100296.72
2018-12-21T23:25:26.217Z,100297.40
2018-12-21T23:27:52.182Z,100290.95
2018-12-21T23:30:18.220Z,100294.55
2018-12-21T23:32:44.192Z,100299.36
2018-12-21T23:35:10.149Z,100285.18
2018-12-21T23:37:36.115Z,100283.53
2018-12-21T23:40:02.193Z,100282.36
2018-12-21T23:42:28.155Z,100280.91
2018-12-21T23:44:54.178Z,100273.81
2018-12-21T23:47:20.435Z,100269.86
2018-12-21T23:49:46.393Z,100273.81
2018-12-21T23:52:12.361Z,100269.86
2018-12-21T23:54:38.330Z,100273.67
2018-12-21T23:57:04.298Z,100275.95
2018-12-21T23:59:30.366Z,100282.89
